createdAt,value
2022-09-09T00:00:51.390Z,15.43
2022-09-09T00:01:51.387Z,15.44
2022-09-09T00:02:51.470Z,15.40
2022-09-09T00:03:51.423Z,15.52
2022-09-09T00:04:51.380Z,15.48
2022-09-09T00:05:51.442Z,15.60
2022-09-09T00:06:51.331Z,15.62
2022-09-09T00:07:51.333Z,15.62
2022-09-09T00:08:51.324Z,15.55
2022-09-09T00:09:51.391Z,15.62
2022-09-09T00:10:51.338Z,15.58
2022-09-09T00:11:51.285Z,15.59
2022-09-09T00:12:51.279Z,15.70
2022-09-09T00:13:51.247Z,15.66
2022-09-09T00:14:51.246Z,15.74
2022-09-09T00:15:51.338Z,15.74
2022-09-09T00:16:51.263Z,15.71
2022-09-09T00:17:51.216Z,15.71
2022-09-09T00:18:51.267Z,15.66
2022-09-09T00:19:51.219Z,15.66
2022-09-09T00:20:51.218Z,15.56
2022-09-09T00:21:51.289Z,15.53
2022-09-09T00:22:51.216Z,15.49
2022-09-09T00:23:51.239Z,15.49
2022-09-09T00:24:51.140Z,15.51
2022-09-09T00:25:52.540Z,15.53
2022-09-09T00:26:51.116Z,15.38
2022-09-09T00:27:51.131Z,15.43
2022-09-09T00:28:51.106Z,15.38
2022-09-09T00:29:51.107Z,15.35
2022-09-09T00:30:51.126Z,15.37
2022-09-09T00:31:51.075Z,15.33
2022-09-09T00:32:51.046Z,15.35
2022-09-09T00:33:51.064Z,15.33
2022-09-09T00:34:51.042Z,15.19
2022-09-09T00:35:51.021Z,15.22
2022-09-09T00:36:51.001Z,15.25
2022-09-09T00:37:51.043Z,15.27
2022-09-09T00:38:51.046Z,15.25
2022-09-09T00:39:51.093Z,15.22
2022-09-09T00:40:51.024Z,15.30
2022-09-09T00:41:50.958Z,15.46
2022-09-09T00:42:50.967Z,15.55
2022-09-09T00:43:50.972Z,15.76
2022-09-09T00:44:50.988Z,15.76
2022-09-09T00:45:50.975Z,15.73
2022-09-09T00:46:51.006Z,15.74
2022-09-09T00:47:50.910Z,15.74
2022-09-09T00:48:50.895Z,15.73
2022-09-09T00:49:50.858Z,15.70
2022-09-09T00:50:50.866Z,15.68
2022-09-09T00:51:50.859Z,15.74
2022-09-09T00:52:50.937Z,15.73
2022-09-09T00:53:50.833Z,15.77
2022-09-09T00:54:50.822Z,15.76
2022-09-09T00:55:50.818Z,15.70
2022-09-09T00:56:50.789Z,15.68
2022-09-09T00:57:50.817Z,15.71
2022-09-09T00:58:50.769Z,15.62
2022-09-09T00:59:50.754Z,15.74
2022-09-09T01:00:50.763Z,15.70
2022-09-09T01:01:50.773Z,15.64
2022-09-09T01:02:50.791Z,15.56
2022-09-09T01:03:50.718Z,15.67
2022-09-09T01:04:50.714Z,15.67
2022-09-09T01:05:50.707Z,15.62
2022-09-09T01:06:50.708Z,15.71
2022-09-09T01:07:53.033Z,15.77
2022-09-09T01:08:51.669Z,15.77
2022-09-09T01:09:50.644Z,15.76
2022-09-09T01:10:50.636Z,15.77
2022-09-09T01:11:50.647Z,15.76
2022-09-09T01:12:50.626Z,15.67
2022-09-09T01:13:50.652Z,15.70
2022-09-09T01:14:50.728Z,15.67
2022-09-09T01:15:50.634Z,15.62
2022-09-09T01:16:50.652Z,15.68
2022-09-09T01:17:50.649Z,15.64
2022-09-09T01:18:50.566Z,15.70
2022-09-09T01:19:50.542Z,15.64
2022-09-09T01:20:50.547Z,15.64
2022-09-09T01:21:50.520Z,15.59
2022-09-09T01:22:50.511Z,15.64
2022-09-09T01:23:50.524Z,15.60
2022-09-09T01:24:50.481Z,15.71
2022-09-09T01:25:50.489Z,15.73
2022-09-09T01:26:50.468Z,15.70
2022-09-09T01:27:50.467Z,15.68
2022-09-09T01:28:50.463Z,15.71
2022-09-09T01:29:50.435Z,15.74
2022-09-09T01:30:50.527Z,15.70
2022-09-09T01:31:50.423Z,15.76
2022-09-09T01:32:50.430Z,15.78
2022-09-09T01:33:50.455Z,15.81
2022-09-09T01:34:50.372Z,15.81
2022-09-09T01:35:50.371Z,15.81
2022-09-09T01:36:50.354Z,15.77
2022-09-09T01:37:50.342Z,15.74
2022-09-09T01:38:50.379Z,15.77
2022-09-09T01:39:50.361Z,15.85
2022-09-09T01:40:50.478Z,15.88
2022-09-09T01:41:50.350Z,15.86
2022-09-09T01:42:50.362Z,15.85
2022-09-09T01:43:50.340Z,15.91
2022-09-09T01:44:50.294Z,15.89
2022-09-09T01:45:50.325Z,15.85
2022-09-09T01:46:50.281Z,15.92
2022-09-09T01:47:50.265Z,15.88
2022-09-09T01:48:50.256Z,15.89
2022-09-09T01:49:50.243Z,15.92
2022-09-09T01:50:50.264Z,15.85
2022-09-09T01:51:50.193Z,15.93
2022-09-09T01:52:50.203Z,16.04
2022-09-09T01:53:50.193Z,15.98
2022-09-09T01:54:50.205Z,16.01
2022-09-09T01:55:50.169Z,16.08
2022-09-09T01:56:50.139Z,16.10
2022-09-09T01:57:50.135Z,16.07
2022-09-09T01:58:50.201Z,16.06
2022-09-09T01:59:50.127Z,16.07
2022-09-09T02:00:50.188Z,16.04
2022-09-09T02:01:50.090Z,16.06
2022-09-09T02:02:50.137Z,16.07
2022-09-09T02:03:50.132Z,16.04
2022-09-09T02:04:50.067Z,16.17
2022-09-09T02:05:50.041Z,16.07
2022-09-09T02:06:50.049Z,16.06
2022-09-09T02:07:50.118Z,16.11
2022-09-09T02:08:50.062Z,16.11
2022-09-09T02:09:50.039Z,16.11
2022-09-09T02:10:50.022Z,16.14
2022-09-09T02:11:49.981Z,16.10
2022-09-09T02:12:50.077Z,16.07
2022-09-09T02:13:50.424Z,16.17
2022-09-09T02:14:50.002Z,16.11
2022-09-09T02:15:49.957Z,16.27
2022-09-09T02:16:50.012Z,16.25
2022-09-09T02:17:49.934Z,16.27
2022-09-09T02:18:49.961Z,16.34
2022-09-09T02:19:49.952Z,16.47
2022-09-09T02:20:49.886Z,16.47
2022-09-09T02:21:49.868Z,16.48
2022-09-09T02:22:49.917Z,16.62
2022-09-09T02:23:49.950Z,16.59
2022-09-09T02:24:49.853Z,16.60
2022-09-09T02:25:49.840Z,16.69
2022-09-09T02:26:49.883Z,16.65
2022-09-09T02:27:49.816Z,16.77
2022-09-09T02:28:49.874Z,16.77
2022-09-09T02:29:49.867Z,16.65
2022-09-09T02:30:49.959Z,16.69
2022-09-09T02:31:49.849Z,16.77
2022-09-09T02:32:49.781Z,16.82
2022-09-09T02:33:49.779Z,16.72
2022-09-09T02:34:49.811Z,16.72
2022-09-09T02:35:49.725Z,16.85
2022-09-09T02:36:49.841Z,16.88
2022-09-09T02:37:49.721Z,16.82
2022-09-09T02:38:49.735Z,16.88
2022-09-09T02:39:49.726Z,16.98
2022-09-09T02:40:49.685Z,16.90
2022-09-09T02:41:49.661Z,16.99
2022-09-09T02:42:49.651Z,16.96
2022-09-09T02:43:49.653Z,17.00
2022-09-09T02:44:49.817Z,16.95
2022-09-09T02:45:49.784Z,16.90
2022-09-09T02:46:49.613Z,16.95
2022-09-09T02:47:49.611Z,16.92
2022-09-09T02:48:49.901Z,16.91
2022-09-09T02:49:49.655Z,16.84
2022-09-09T02:50:49.571Z,16.84
2022-09-09T02:51:49.556Z,16.88
2022-09-09T02:52:49.559Z,16.88
2022-09-09T02:53:49.545Z,16.84
2022-09-09T02:54:49.527Z,16.84
2022-09-09T02:55:49.562Z,16.82
2022-09-09T02:56:49.514Z,16.77
2022-09-09T02:57:49.524Z,16.82
2022-09-09T02:58:49.488Z,16.73
2022-09-09T02:59:49.533Z,16.63
2022-09-09T03:00:49.517Z,16.66
2022-09-09T03:01:49.460Z,16.63
2022-09-09T03:02:49.505Z,16.65
2022-09-09T03:03:49.441Z,16.65
2022-09-09T03:04:49.416Z,16.63
2022-09-09T03:05:49.447Z,16.63
2022-09-09T03:06:49.418Z,16.63
2022-09-09T03:07:49.486Z,16.60
2022-09-09T03:08:49.866Z,16.63
2022-09-09T03:09:49.367Z,16.54
2022-09-09T03:10:49.363Z,16.59
2022-09-09T03:11:49.402Z,16.60
2022-09-09T03:12:49.369Z,16.63
2022-09-09T03:13:49.327Z,16.60
2022-09-09T03:14:49.327Z,16.52
2022-09-09T03:15:49.327Z,16.55
2022-09-09T03:16:49.396Z,16.55
2022-09-09T03:17:49.357Z,16.51
2022-09-09T03:18:49.263Z,16.47
2022-09-09T03:19:49.293Z,16.50
2022-09-09T03:20:49.248Z,16.44
2022-09-09T03:21:49.236Z,16.41
2022-09-09T03:22:49.234Z,16.34
2022-09-09T03:23:49.244Z,16.33
2022-09-09T03:24:49.273Z,16.32
2022-09-09T03:25:49.185Z,16.22
2022-09-09T03:26:49.179Z,16.27
2022-09-09T03:27:49.199Z,16.26
2022-09-09T03:28:49.179Z,16.17
2022-09-09T03:29:49.142Z,16.17
2022-09-09T03:30:49.137Z,16.25
2022-09-09T03:31:49.252Z,16.13
2022-09-09T03:32:49.144Z,16.17
2022-09-09T03:33:49.115Z,16.13
2022-09-09T03:34:49.097Z,16.11
2022-09-09T03:35:49.100Z,16.22
2022-09-09T03:36:49.072Z,16.13
2022-09-09T03:37:49.058Z,16.11
2022-09-09T03:38:49.081Z,16.08
2022-09-09T03:39:49.173Z,16.07
2022-09-09T03:40:49.035Z,16.01
2022-09-09T03:41:49.009Z,16.11
2022-09-09T03:42:49.000Z,15.98
2022-09-09T03:43:49.011Z,15.98
2022-09-09T03:44:48.983Z,15.95
2022-09-09T03:45:49.047Z,15.89
2022-09-09T03:46:48.967Z,15.89
2022-09-09T03:47:48.964Z,15.91
2022-09-09T03:48:49.004Z,15.91
2022-09-09T03:49:48.998Z,15.88
2022-09-09T03:50:49.015Z,15.96
2022-09-09T03:51:48.957Z,15.89
2022-09-09T03:52:48.937Z,15.88
2022-09-09T03:53:48.937Z,15.89
2022-09-09T03:54:48.900Z,15.81
2022-09-09T03:55:48.920Z,15.76
2022-09-09T03:56:48.849Z,15.66
2022-09-09T03:57:48.843Z,15.70
2022-09-09T03:58:48.846Z,15.64
2022-09-09T03:59:48.868Z,15.56
2022-09-09T04:00:48.891Z,15.51
2022-09-09T04:01:48.826Z,15.46
2022-09-09T04:02:48.869Z,15.44
2022-09-09T04:03:48.805Z,15.41
2022-09-09T04:04:48.826Z,15.43
2022-09-09T04:05:48.797Z,15.34
2022-09-09T04:06:48.792Z,15.40
2022-09-09T04:07:48.793Z,15.38
2022-09-09T04:08:48.820Z,15.51
2022-09-09T04:09:48.726Z,15.44
2022-09-09T04:10:48.764Z,15.44
2022-09-09T04:11:48.793Z,15.46
2022-09-09T04:12:49.586Z,15.37
2022-09-09T04:13:48.766Z,15.53
2022-09-09T04:14:48.753Z,15.48
2022-09-09T04:15:48.721Z,15.49
2022-09-09T04:16:48.740Z,15.46
2022-09-09T04:17:48.662Z,15.52
2022-09-09T04:18:48.683Z,15.46
2022-09-09T04:19:48.612Z,15.44
2022-09-09T04:20:48.640Z,15.60
2022-09-09T04:21:48.601Z,15.60
2022-09-09T04:22:48.607Z,15.49
2022-09-09T04:23:48.603Z,15.49
2022-09-09T04:24:49.008Z,15.44
2022-09-09T04:25:48.619Z,15.44
2022-09-09T04:26:48.738Z,15.48
2022-09-09T04:27:48.601Z,15.49
2022-09-09T04:28:48.706Z,15.46
2022-09-09T04:29:48.499Z,15.58
2022-09-09T04:30:48.538Z,15.56
2022-09-09T04:31:48.592Z,15.64
2022-09-09T04:32:48.465Z,15.77
2022-09-09T04:33:48.493Z,15.71
2022-09-09T04:34:48.448Z,15.84
2022-09-09T04:35:48.450Z,15.85
2022-09-09T04:36:48.413Z,15.96
2022-09-09T04:37:48.416Z,16.08
2022-09-09T04:38:48.773Z,16.04
2022-09-09T04:39:48.433Z,16.10
2022-09-09T04:40:48.406Z,16.26
2022-09-09T04:41:48.368Z,16.27
2022-09-09T04:42:48.560Z,16.34
2022-09-09T04:43:48.378Z,16.34
2022-09-09T04:44:48.334Z,16.55
2022-09-09T04:45:48.508Z,16.62
2022-09-09T04:46:48.307Z,16.73
2022-09-09T04:47:48.297Z,16.82
2022-09-09T04:48:48.306Z,16.75
2022-09-09T04:49:48.377Z,16.81
2022-09-09T04:50:48.430Z,16.82
2022-09-09T04:51:48.259Z,16.82
2022-09-09T04:52:48.259Z,16.90
2022-09-09T04:53:48.261Z,16.95
2022-09-09T04:54:48.238Z,16.99
2022-09-09T04:55:48.257Z,16.96
2022-09-09T04:56:48.215Z,16.99
2022-09-09T04:57:48.209Z,17.14
2022-09-09T04:58:48.240Z,17.15
2022-09-09T04:59:48.170Z,17.30
2022-09-09T05:00:48.203Z,17.28
2022-09-09T05:01:48.214Z,17.30
2022-09-09T05:02:48.154Z,17.33
2022-09-09T05:03:48.170Z,17.36
2022-09-09T05:04:48.133Z,17.35
2022-09-09T05:05:48.102Z,17.30
2022-09-09T05:06:48.174Z,17.36
2022-09-09T05:07:48.099Z,17.38
2022-09-09T05:08:48.110Z,17.38
2022-09-09T05:09:48.053Z,17.24
2022-09-09T05:10:48.061Z,17.27
2022-09-09T05:11:48.186Z,17.39
2022-09-09T05:12:48.064Z,17.43
2022-09-09T05:13:48.031Z,17.35
2022-09-09T05:14:48.008Z,17.36
2022-09-09T05:15:48.042Z,17.43
2022-09-09T05:16:48.011Z,17.43
2022-09-09T05:17:47.988Z,17.47
2022-09-09T05:18:47.969Z,17.51
2022-09-09T05:19:47.996Z,17.55
2022-09-09T05:20:47.958Z,17.65
2022-09-09T05:21:47.951Z,17.66
2022-09-09T05:22:47.969Z,17.80
2022-09-09T05:23:47.926Z,17.76
2022-09-09T05:24:47.977Z,17.84
2022-09-09T05:25:47.945Z,17.84
2022-09-09T05:26:48.048Z,17.83
2022-09-09T05:27:47.971Z,17.87
2022-09-09T05:28:47.911Z,17.83
2022-09-09T05:29:47.853Z,17.87
2022-09-09T05:30:47.845Z,17.84
2022-09-09T05:31:47.942Z,17.99
2022-09-09T05:32:47.856Z,18.01
2022-09-09T05:33:47.828Z,18.10
2022-09-09T05:34:47.812Z,17.96
2022-09-09T05:35:47.785Z,17.96
2022-09-09T05:36:47.829Z,17.99
2022-09-09T05:37:47.776Z,17.98
2022-09-09T05:38:47.816Z,18.01
2022-09-09T05:39:47.804Z,17.91
2022-09-09T05:40:47.735Z,18.11
2022-09-09T05:41:47.744Z,17.99
2022-09-09T05:42:47.698Z,17.98
2022-09-09T05:43:47.784Z,17.91
2022-09-09T05:44:47.712Z,17.98
2022-09-09T05:45:47.698Z,18.01
2022-09-09T05:46:47.746Z,18.04
2022-09-09T05:47:47.641Z,18.05
2022-09-09T05:48:47.713Z,18.10
2022-09-09T05:49:47.706Z,18.05
2022-09-09T05:50:47.631Z,18.11
2022-09-09T05:51:47.723Z,18.19
2022-09-09T05:52:47.657Z,18.25
2022-09-09T05:53:47.628Z,18.20
2022-09-09T05:54:47.633Z,18.25
2022-09-09T05:55:47.594Z,18.25
2022-09-09T05:56:51.492Z,18.28
2022-09-09T05:57:47.597Z,18.34
2022-09-09T05:58:47.548Z,18.32
2022-09-09T05:59:47.642Z,18.36
2022-09-09T06:00:47.551Z,18.39
2022-09-09T06:01:47.652Z,18.34
2022-09-09T06:02:47.638Z,18.29
2022-09-09T06:03:47.555Z,18.28
2022-09-09T06:04:47.504Z,18.31
2022-09-09T06:05:47.450Z,18.35
2022-09-09T06:06:47.456Z,18.34
2022-09-09T06:07:47.463Z,18.32
2022-09-09T06:08:47.423Z,18.42
2022-09-09T06:09:47.415Z,18.38
2022-09-09T06:10:47.390Z,18.36
2022-09-09T06:11:47.401Z,18.39
2022-09-09T06:12:47.567Z,18.39
2022-09-09T06:13:47.498Z,18.46
2022-09-09T06:14:47.349Z,18.44
2022-09-09T06:15:47.412Z,18.36
2022-09-09T06:16:47.337Z,18.46
2022-09-09T06:17:47.427Z,18.59
2022-09-09T06:18:47.377Z,18.54
2022-09-09T06:19:47.334Z,18.57
2022-09-09T06:20:47.290Z,18.64
2022-09-09T06:21:47.288Z,18.69
2022-09-09T06:22:47.297Z,18.72
2022-09-09T06:23:47.263Z,18.83
2022-09-09T06:24:47.335Z,18.89
2022-09-09T06:25:47.269Z,18.96
2022-09-09T06:26:47.221Z,19.10
2022-09-09T06:27:47.269Z,19.12
2022-09-09T06:28:47.210Z,19.32
2022-09-09T06:29:47.295Z,19.45
2022-09-09T06:30:47.179Z,19.50
2022-09-09T06:31:47.252Z,19.43
2022-09-09T06:32:47.182Z,19.45
2022-09-09T06:33:47.145Z,19.42
2022-09-09T06:34:47.173Z,19.45
2022-09-09T06:35:47.157Z,19.47
2022-09-09T06:36:47.144Z,19.50
2022-09-09T06:37:47.128Z,19.53
2022-09-09T06:38:47.100Z,19.62
2022-09-09T06:39:47.102Z,19.58
2022-09-09T06:40:47.092Z,19.65
2022-09-09T06:41:47.083Z,19.60
2022-09-09T06:42:47.067Z,19.80
2022-09-09T06:43:47.107Z,19.86
2022-09-09T06:44:47.027Z,19.98
2022-09-09T06:45:47.050Z,20.02
2022-09-09T06:46:47.110Z,19.85
2022-09-09T06:47:47.037Z,19.70
2022-09-09T06:48:46.986Z,19.60
2022-09-09T06:49:48.426Z,19.35
2022-09-09T06:50:46.973Z,19.27
2022-09-09T06:51:46.971Z,19.15
2022-09-09T06:52:46.998Z,19.06
2022-09-09T06:53:46.950Z,19.13
2022-09-09T06:54:46.951Z,19.15
2022-09-09T06:55:46.984Z,19.20
2022-09-09T06:56:46.974Z,19.17
2022-09-09T06:57:46.979Z,19.10
2022-09-09T06:58:46.869Z,19.05
2022-09-09T06:59:46.872Z,18.96
2022-09-09T07:00:46.946Z,19.06
2022-09-09T07:01:46.889Z,19.58
2022-09-09T07:02:46.899Z,20.34
2022-09-09T07:03:46.839Z,21.01
2022-09-09T07:04:46.814Z,21.59
2022-09-09T07:05:46.808Z,21.58
2022-09-09T07:06:46.794Z,21.58
2022-09-09T07:07:46.800Z,21.18
2022-09-09T07:08:55.976Z,21.09
2022-09-09T07:09:47.762Z,20.87
2022-09-09T07:10:46.767Z,20.31
2022-09-09T07:11:46.782Z,20.48
2022-09-09T07:12:46.745Z,20.41
2022-09-09T07:13:46.723Z,20.16
2022-09-09T07:14:46.712Z,20.17
2022-09-09T07:15:46.751Z,19.98
2022-09-09T07:16:46.692Z,19.86
2022-09-09T07:17:46.782Z,20.33
2022-09-09T07:18:46.664Z,21.00
2022-09-09T07:19:46.690Z,21.70
2022-09-09T07:20:46.641Z,22.02
2022-09-09T07:21:46.660Z,21.91
2022-09-09T07:22:46.724Z,21.71
2022-09-09T07:23:46.784Z,21.66
2022-09-09T07:24:46.616Z,21.53
2022-09-09T07:25:46.618Z,21.96
2022-09-09T07:26:46.612Z,22.14
2022-09-09T07:27:46.644Z,22.76
2022-09-09T07:28:46.635Z,23.41
2022-09-09T07:29:46.580Z,23.79
2022-09-09T07:30:46.566Z,24.04
2022-09-09T07:31:46.742Z,24.31
2022-09-09T07:32:46.539Z,23.64
2022-09-09T07:33:46.501Z,23.11
2022-09-09T07:34:46.584Z,22.67
2022-09-09T07:35:46.542Z,22.51
2022-09-09T07:36:46.459Z,22.14
2022-09-09T07:37:50.688Z,21.86
2022-09-09T07:38:46.436Z,21.36
2022-09-09T07:39:46.805Z,21.21
2022-09-09T07:40:46.585Z,21.03
2022-09-09T07:41:46.415Z,21.24
2022-09-09T07:42:46.423Z,21.26
2022-09-09T07:43:46.504Z,21.34
2022-09-09T07:44:46.381Z,21.26
2022-09-09T07:45:46.480Z,21.13
2022-09-09T07:46:46.731Z,20.98
2022-09-09T07:47:46.424Z,20.96
2022-09-09T07:48:46.394Z,20.94
2022-09-09T07:49:46.346Z,20.82
2022-09-09T07:50:46.381Z,20.75
2022-09-09T07:51:46.404Z,20.69
2022-09-09T07:52:46.725Z,20.64
2022-09-09T07:53:46.294Z,20.57
2022-09-09T07:54:46.312Z,20.50
2022-09-09T07:55:46.300Z,20.35
2022-09-09T07:56:46.297Z,20.23
2022-09-09T07:57:46.299Z,20.08
2022-09-09T07:58:46.245Z,20.05
2022-09-09T07:59:46.248Z,20.00
2022-09-09T08:00:46.215Z,20.00
2022-09-09T08:01:46.282Z,20.00
2022-09-09T08:02:46.273Z,19.97
2022-09-09T08:03:46.176Z,19.95
2022-09-09T08:04:46.506Z,20.12
2022-09-09T08:05:46.174Z,20.10
2022-09-09T08:06:46.174Z,20.27
2022-09-09T08:07:46.199Z,20.17
2022-09-09T08:08:46.181Z,20.20
2022-09-09T08:09:46.125Z,20.40
2022-09-09T08:10:46.159Z,20.53
2022-09-09T08:11:46.094Z,20.71
2022-09-09T08:13:01.419Z,21.16
2022-09-09T08:13:50.854Z,21.27
2022-09-09T08:14:47.083Z,21.33
2022-09-09T08:15:46.197Z,21.18
2022-09-09T08:16:46.103Z,21.09
2022-09-09T08:17:46.611Z,21.03
2022-09-09T08:18:46.057Z,21.51
2022-09-09T08:19:46.004Z,22.31
2022-09-09T08:20:46.043Z,22.29
2022-09-09T08:21:45.995Z,22.27
2022-09-09T08:22:46.036Z,22.38
2022-09-09T08:23:45.981Z,22.27
2022-09-09T08:24:46.020Z,21.98
2022-09-09T08:25:45.976Z,22.51
2022-09-09T08:26:45.967Z,22.45
2022-09-09T08:27:45.958Z,22.39
2022-09-09T08:28:45.964Z,22.79
2022-09-09T08:29:45.964Z,23.00
2022-09-09T08:30:46.074Z,23.54
2022-09-09T08:31:45.869Z,23.96
2022-09-09T08:32:46.572Z,24.02
2022-09-09T08:33:45.863Z,23.93
2022-09-09T08:34:46.600Z,23.97
2022-09-09T08:35:49.635Z,24.02
2022-09-09T08:36:45.830Z,23.92
2022-09-09T08:37:45.844Z,24.24
2022-09-09T08:38:45.801Z,24.37
2022-09-09T08:39:45.857Z,24.52
2022-09-09T08:40:45.812Z,24.67
2022-09-09T08:41:45.838Z,24.63
2022-09-09T08:42:45.811Z,24.42
2022-09-09T08:43:45.844Z,24.48
2022-09-09T08:44:48.929Z,24.49
2022-09-09T08:45:45.821Z,24.49
2022-09-09T08:46:45.850Z,24.27
2022-09-09T08:47:45.783Z,24.33
2022-09-09T08:48:45.800Z,24.30
2022-09-09T08:49:45.726Z,24.33
2022-09-09T08:50:45.729Z,24.45
2022-09-09T08:51:45.730Z,24.51
2022-09-09T08:52:45.763Z,24.66
2022-09-09T08:53:45.697Z,24.61
2022-09-09T08:54:52.171Z,24.68
2022-09-09T08:55:46.659Z,24.55
2022-09-09T08:56:45.610Z,24.55
2022-09-09T08:57:45.607Z,24.14
2022-09-09T08:58:45.608Z,23.86
2022-09-09T08:59:45.618Z,23.90
2022-09-09T09:00:45.596Z,24.30
2022-09-09T09:01:45.661Z,23.92
2022-09-09T09:02:45.551Z,23.75
2022-09-09T09:03:45.531Z,23.96
2022-09-09T09:04:45.634Z,24.15
2022-09-09T09:05:45.577Z,24.30
2022-09-09T09:06:45.552Z,24.39
2022-09-09T09:07:45.586Z,24.68
2022-09-09T09:08:45.528Z,24.33
2022-09-09T09:09:45.552Z,24.63
2022-09-09T09:10:45.444Z,24.87
2022-09-09T09:11:45.583Z,25.12
2022-09-09T09:12:45.512Z,25.41
2022-09-09T09:13:45.523Z,25.56
2022-09-09T09:14:45.410Z,25.12
2022-09-09T09:15:45.425Z,24.33
2022-09-09T09:16:45.380Z,23.62
2022-09-09T09:17:45.433Z,23.25
2022-09-09T09:18:45.373Z,23.18
2022-09-09T09:19:45.421Z,22.85
2022-09-09T09:20:45.346Z,22.51
2022-09-09T09:21:45.378Z,22.30
2022-09-09T09:22:45.360Z,22.06
2022-09-09T09:23:45.365Z,22.01
2022-09-09T09:24:45.294Z,21.98
2022-09-09T09:25:45.381Z,21.96
2022-09-09T09:26:45.361Z,21.89
2022-09-09T09:27:45.354Z,21.93
2022-09-09T09:28:45.357Z,21.98
2022-09-09T09:30:10.529Z,21.81
2022-09-09T09:30:46.274Z,21.99
2022-09-09T09:31:45.284Z,21.93
2022-09-09T09:32:45.287Z,21.94
2022-09-09T09:33:45.311Z,22.02
2022-09-09T09:34:45.317Z,21.85
2022-09-09T09:35:45.240Z,21.94
2022-09-09T09:36:45.237Z,22.09
2022-09-09T09:40:46.185Z,22.21
2022-09-09T09:41:45.205Z,22.38
2022-09-09T09:42:45.139Z,22.54
2022-09-09T09:43:45.236Z,22.64
2022-09-09T09:44:45.223Z,22.44
2022-09-09T09:45:55.312Z,22.26
2022-09-09T09:46:46.220Z,22.67
2022-09-09T09:47:45.158Z,22.67
2022-09-09T09:48:45.046Z,22.44
2022-09-09T09:49:45.053Z,22.23
2022-09-09T09:50:45.042Z,21.96
2022-09-09T09:51:45.098Z,21.98
2022-09-09T09:52:45.220Z,22.08
2022-09-09T09:53:45.032Z,21.85
2022-09-09T09:54:44.992Z,22.21
2022-09-09T09:55:45.043Z,22.88
2022-09-09T09:56:44.957Z,23.54
2022-09-09T09:57:45.092Z,23.86
2022-09-09T09:58:44.973Z,24.29
2022-09-09T09:59:44.954Z,24.67
2022-09-09T10:00:44.948Z,25.02
2022-09-09T10:01:44.983Z,25.42
2022-09-09T10:02:44.912Z,25.12
2022-09-09T10:03:44.916Z,25.23
2022-09-09T10:04:44.979Z,25.72
2022-09-09T10:05:44.874Z,26.04
2022-09-09T10:06:44.898Z,26.47
2022-09-09T10:07:45.022Z,26.00
2022-09-09T10:08:45.294Z,25.39
2022-09-09T10:09:44.991Z,25.34
2022-09-09T10:10:47.943Z,24.41
2022-09-09T10:11:44.936Z,23.81
2022-09-09T10:12:45.190Z,23.94
2022-09-09T10:13:45.074Z,24.48
2022-09-09T10:14:44.787Z,24.71
2022-09-09T10:15:44.905Z,24.87
2022-09-09T10:16:44.782Z,24.92
2022-09-09T10:17:44.748Z,24.84
2022-09-09T10:18:44.777Z,24.93
2022-09-09T10:19:44.723Z,24.79
2022-09-09T10:20:44.722Z,25.20
2022-09-09T10:21:44.770Z,25.39
2022-09-09T10:22:44.728Z,24.64
2022-09-09T10:23:44.667Z,23.97
2022-09-09T10:24:44.769Z,23.35
2022-09-09T10:25:44.661Z,22.86
2022-09-09T10:26:44.780Z,22.51
2022-09-09T10:27:44.645Z,22.24
2022-09-09T10:28:44.630Z,22.06
2022-09-09T10:29:44.677Z,21.98
2022-09-09T10:30:44.648Z,22.02
2022-09-09T10:31:44.613Z,21.85
2022-09-09T10:32:44.638Z,21.83
2022-09-09T10:33:44.611Z,21.67
2022-09-09T10:34:44.569Z,21.71
2022-09-09T10:35:44.587Z,21.94
2022-09-09T10:36:44.758Z,22.49
2022-09-09T10:37:44.555Z,22.93
2022-09-09T10:38:44.589Z,23.00
2022-09-09T10:39:44.575Z,22.88
2022-09-09T10:40:44.540Z,22.85
2022-09-09T10:41:44.478Z,23.06
2022-09-09T10:42:44.501Z,23.23
2022-09-09T10:43:44.527Z,23.44
2022-09-09T10:44:44.466Z,23.35
2022-09-09T10:45:44.547Z,23.25
2022-09-09T10:46:44.438Z,23.04
2022-09-09T10:47:44.436Z,22.91
2022-09-09T10:48:44.418Z,22.64
2022-09-09T10:49:44.431Z,22.48
2022-09-09T10:51:03.486Z,22.23
2022-09-09T10:51:45.451Z,22.01
2022-09-09T10:52:44.367Z,22.06
2022-09-09T10:53:44.390Z,21.98
2022-09-09T10:54:44.360Z,22.05
2022-09-09T10:55:44.348Z,22.41
2022-09-09T10:56:44.338Z,22.85
2022-09-09T10:57:44.312Z,23.78
2022-09-09T10:58:44.305Z,24.41
2022-09-09T10:59:44.334Z,24.59
2022-09-09T11:00:44.321Z,24.48
2022-09-09T11:01:44.349Z,24.60
2022-09-09T11:02:44.338Z,24.86
2022-09-09T11:03:44.274Z,25.02
2022-09-09T11:04:44.240Z,25.35
2022-09-09T11:05:44.232Z,25.56
2022-09-09T11:06:44.314Z,25.44
2022-09-09T11:07:44.286Z,25.29
2022-09-09T11:08:44.200Z,24.99
2022-09-09T11:09:44.175Z,24.70
2022-09-09T11:10:44.177Z,24.66
2022-09-09T11:11:44.177Z,24.68
2022-09-09T11:12:44.194Z,24.61
2022-09-09T11:13:44.145Z,24.63
2022-09-09T11:14:44.142Z,24.29
2022-09-09T11:15:44.440Z,24.16
2022-09-09T11:16:44.215Z,24.04
2022-09-09T11:17:44.161Z,23.90
2022-09-09T11:18:44.095Z,23.84
2022-09-09T11:19:44.090Z,23.67
2022-09-09T11:20:44.121Z,23.59
2022-09-09T11:21:44.088Z,23.42
2022-09-09T11:22:44.161Z,23.12
2022-09-09T11:23:44.074Z,22.81
2022-09-09T11:24:44.025Z,22.67
2022-09-09T11:25:44.033Z,22.61
2022-09-09T11:26:44.060Z,22.52
2022-09-09T11:27:44.052Z,22.38
2022-09-09T11:28:44.085Z,22.54
2022-09-09T11:29:44.008Z,22.49
2022-09-09T11:30:56.050Z,22.41
2022-09-09T11:31:45.125Z,22.35
2022-09-09T11:32:44.014Z,22.38
2022-09-09T11:33:43.996Z,22.33
2022-09-09T11:34:43.948Z,22.41
2022-09-09T11:35:44.012Z,22.44
2022-09-09T11:36:43.983Z,22.63
2022-09-09T11:37:43.908Z,22.72
2022-09-09T11:38:43.882Z,23.25
2022-09-09T11:39:43.912Z,24.34
2022-09-09T11:40:43.905Z,25.07
2022-09-09T11:41:43.863Z,25.61
2022-09-09T11:42:43.867Z,25.94
2022-09-09T11:43:43.885Z,26.13
2022-09-09T11:44:43.834Z,26.54
2022-09-09T11:45:43.842Z,26.79
2022-09-09T11:46:43.838Z,27.03
2022-09-09T11:47:43.868Z,26.87
2022-09-09T11:48:43.787Z,26.54
2022-09-09T11:49:43.774Z,26.13
2022-09-09T11:50:43.776Z,25.64
2022-09-09T11:51:43.781Z,25.16
2022-09-09T11:52:43.785Z,24.67
2022-09-09T11:53:43.726Z,24.45
2022-09-09T11:54:43.746Z,24.02
2022-09-09T11:55:43.712Z,23.68
2022-09-09T11:56:43.706Z,23.78
2022-09-09T11:57:48.937Z,23.86
2022-09-09T11:58:44.677Z,24.23
2022-09-09T11:59:43.666Z,24.90
2022-09-09T12:00:43.824Z,24.87
2022-09-09T12:01:43.677Z,24.46
2022-09-09T12:02:43.761Z,24.11
2022-09-09T12:03:43.780Z,23.97
2022-09-09T12:04:43.743Z,24.51
2022-09-09T12:05:43.597Z,24.93
2022-09-09T12:06:43.863Z,25.49
2022-09-09T12:07:43.610Z,25.72
2022-09-09T12:08:43.628Z,25.20
2022-09-09T12:09:43.576Z,24.68
2022-09-09T12:10:43.549Z,24.15
2022-09-09T12:11:43.583Z,24.48
2022-09-09T12:12:44.269Z,25.05
2022-09-09T12:13:43.630Z,25.30
2022-09-09T12:14:43.502Z,25.34
2022-09-09T12:15:43.483Z,24.79
2022-09-09T12:16:43.523Z,24.41
2022-09-09T12:17:43.482Z,24.24
2022-09-09T12:18:43.543Z,24.16
2022-09-09T12:19:43.470Z,24.18
2022-09-09T12:20:43.461Z,23.94
2022-09-09T12:21:43.458Z,23.97
2022-09-09T12:22:43.450Z,24.14
2022-09-09T12:23:43.453Z,24.12
2022-09-09T12:24:43.519Z,24.34
2022-09-09T12:25:43.397Z,24.68
2022-09-09T12:26:43.380Z,25.24
2022-09-09T12:27:43.402Z,26.19
2022-09-09T12:28:43.492Z,26.38
2022-09-09T12:29:43.466Z,26.20
2022-09-09T12:30:43.417Z,26.57
2022-09-09T12:31:45.726Z,26.24
2022-09-09T12:32:43.385Z,26.36
2022-09-09T12:33:43.390Z,26.28
2022-09-09T12:34:43.383Z,26.31
2022-09-09T12:35:43.283Z,26.03
2022-09-09T12:36:43.281Z,25.94
2022-09-09T12:37:43.340Z,25.42
2022-09-09T12:38:43.332Z,25.11
2022-09-09T12:39:43.306Z,24.34
2022-09-09T12:40:43.253Z,23.86
2022-09-09T12:41:43.245Z,23.52
2022-09-09T12:42:43.323Z,22.99
2022-09-09T12:43:43.223Z,22.75
2022-09-09T12:44:43.191Z,22.61
2022-09-09T12:45:43.219Z,22.59
2022-09-09T12:46:43.195Z,22.48
2022-09-09T12:47:44.138Z,22.64
2022-09-09T12:48:43.180Z,22.64
2022-09-09T12:49:43.163Z,22.69
2022-09-09T12:50:43.151Z,22.66
2022-09-09T12:51:43.120Z,22.76
2022-09-09T12:52:43.174Z,22.93
2022-09-09T12:53:43.086Z,22.97
2022-09-09T12:54:43.133Z,23.00
2022-09-09T12:55:43.079Z,23.03